sensor_id;sensor_type;location;lat;lon;timestamp;temperature;humidity
19930;DHT22;10127;47.780;9.606;2022-09-09T00:04:03;15.80;99.90
19930;DHT22;10127;47.780;9.606;2022-09-09T00:09:23;15.80;99.90
19930;DHT22;10127;47.780;9.606;2022-09-09T00:12:05;15.70;99.90
19930;DHT22;10127;47.780;9.606;2022-09-09T00:14:50;15.70;99.90
19930;DHT22;10127;47.780;9.606;2022-09-09T00:19:52;15.60;99.90
19930;DHT22;10127;47.780;9.606;2022-09-09T00:22:23;15.70;99.90
19930;DHT22;10127;47.780;9.606;2022-09-09T00:24:55;15.50;99.90
19930;DHT22;10127;47.780;9.606;2022-09-09T00:27:33;15.40;99.90
19930;DHT22;10127;47.780;9.606;2022-09-09T00:32:39;15.30;99.90
19930;DHT22;10127;47.780;9.606;2022-09-09T00:35:32;15.40;99.90
19930;DHT22;10127;47.780;9.606;2022-09-09T00:38:18;15.50;99.90
19930;DHT22;10127;47.780;9.606;2022-09-09T00:41:00;15.50;99.90
19930;DHT22;10127;47.780;9.606;2022-09-09T00:43:36;15.40;99.90
19930;DHT22;10127;47.780;9.606;2022-09-09T00:46:32;15.30;99.90
19930;DHT22;10127;47.780;9.606;2022-09-09T00:51:49;15.30;99.90
19930;DHT22;10127;47.780;9.606;2022-09-09T00:57:33;15.30;99.90
19930;DHT22;10127;47.780;9.606;2022-09-09T01:00:29;15.20;99.90
19930;DHT22;10127;47.780;9.606;2022-09-09T01:05:34;15.20;99.90
19930;DHT22;10127;47.780;9.606;2022-09-09T01:08:04;15.20;99.90
19930;DHT22;10127;47.780;9.606;2022-09-09T01:10:37;15.20;99.90
19930;DHT22;10127;47.780;9.606;2022-09-09T01:13:19;15.20;99.90
19930;DHT22;10127;47.780;9.606;2022-09-09T01:15:47;15.20;99.90
19930;DHT22;10127;47.780;9.606;2022-09-09T01:18:17;15.20;99.90
19930;DHT22;10127;47.780;9.606;2022-09-09T01:26:36;15.10;99.90
19930;DHT22;10127;47.780;9.606;2022-09-09T01:29:11;15.00;99.90
19930;DHT22;10127;47.780;9.606;2022-09-09T01:31:39;14.80;99.90
19930;DHT22;10127;47.780;9.606;2022-09-09T01:34:14;14.70;99.90
19930;DHT22;10127;47.780;9.606;2022-09-09T01:39:12;14.70;99.90
19930;DHT22;10127;47.780;9.606;2022-09-09T01:41:38;14.70;99.90
19930;DHT22;10127;47.780;9.606;2022-09-09T01:44:05;14.70;99.90
19930;DHT22;10127;47.780;9.606;2022-09-09T01:46:32;14.70;99.90
19930;DHT22;10127;47.780;9.606;2022-09-09T01:48:58;14.70;99.90
19930;DHT22;10127;47.780;9.606;2022-09-09T01:51:25;14.80;99.90
19930;DHT22;10127;47.780;9.606;2022-09-09T01:53:51;14.80;99.90
19930;DHT22;10127;47.780;9.606;2022-09-09T01:56:35;14.90;99.90
19930;DHT22;10127;47.780;9.606;2022-09-09T02:02:07;14.90;99.90
19930;DHT22;10127;47.780;9.606;2022-09-09T02:04:38;14.80;99.90
19930;DHT22;10127;47.780;9.606;2022-09-09T02:10:01;14.80;99.90
19930;DHT22;10127;47.780;9.606;2022-09-09T02:12:30;14.90;99.90
19930;DHT22;10127;47.780;9.606;2022-09-09T02:15:04;14.70;99.90
19930;DHT22;10127;47.780;9.606;2022-09-09T02:17:34;14.60;99.90
19930;DHT22;10127;47.780;9.606;2022-09-09T02:20:14;14.50;99.90
19930;DHT22;10127;47.780;9.606;2022-09-09T02:22:42;14.60;99.90
19930;DHT22;10127;47.780;9.606;2022-09-09T02:25:13;14.60;99.90
19930;DHT22;10127;47.780;9.606;2022-09-09T02:27:41;14.50;99.90
19930;DHT22;10127;47.780;9.606;2022-09-09T02:30:09;14.60;99.90
19930;DHT22;10127;47.780;9.606;2022-09-09T02:32:36;14.70;99.90
19930;DHT22;10127;47.780;9.606;2022-09-09T02:35:09;14.70;99.90
19930;DHT22;10127;47.780;9.606;2022-09-09T02:37:38;14.70;99.90
19930;DHT22;10127;47.780;9.606;2022-09-09T02:40:06;14.70;99.90
19930;DHT22;10127;47.780;9.606;2022-09-09T02:42:41;14.60;99.90
19930;DHT22;10127;47.780;9.606;2022-09-09T02:45:10;14.60;99.90
19930;DHT22;10127;47.780;9.606;2022-09-09T02:48:02;14.50;99.90
19930;DHT22;10127;47.780;9.606;2022-09-09T02:50:33;14.50;99.90
19930;DHT22;10127;47.780;9.606;2022-09-09T03:13:33;15.10;99.90
19930;DHT22;10127;47.780;9.606;2022-09-09T03:15:59;15.20;99.90
19930;DHT22;10127;47.780;9.606;2022-09-09T03:18:25;15.10;99.90
19930;DHT22;10127;47.780;9.606;2022-09-09T03:20:50;15.20;99.90
19930;DHT22;10127;47.780;9.606;2022-09-09T03:23:16;15.20;99.90
19930;DHT22;10127;47.780;9.606;2022-09-09T03:25:51;15.20;99.90
19930;DHT22;10127;47.780;9.606;2022-09-09T03:28:18;15.00;99.90
19930;DHT22;10127;47.780;9.606;2022-09-09T03:30:43;15.00;99.90
19930;DHT22;10127;47.780;9.606;2022-09-09T03:33:09;15.20;99.90
19930;DHT22;10127;47.780;9.606;2022-09-09T03:35:35;15.30;99.90
19930;DHT22;10127;47.780;9.606;2022-09-09T03:38:01;15.10;99.90
19930;DHT22;10127;47.780;9.606;2022-09-09T03:40:27;15.30;99.90
19930;DHT22;10127;47.780;9.606;2022-09-09T03:42:52;15.40;99.90
19930;DHT22;10127;47.780;9.606;2022-09-09T03:45:18;15.50;99.90
19930;DHT22;10127;47.780;9.606;2022-09-09T03:47:44;15.70;99.90
19930;DHT22;10127;47.780;9.606;2022-09-09T03:50:10;15.80;99.90
19930;DHT22;10127;47.780;9.606;2022-09-09T03:52:37;15.60;99.90
19930;DHT22;10127;47.780;9.606;2022-09-09T03:55:03;15.50;99.90
19930;DHT22;10127;47.780;9.606;2022-09-09T03:57:29;15.50;99.90
19930;DHT22;10127;47.780;9.606;2022-09-09T03:59:55;15.50;99.90
19930;DHT22;10127;47.780;9.606;2022-09-09T04:02:21;15.30;99.90
19930;DHT22;10127;47.780;9.606;2022-09-09T04:04:47;15.30;99.90
19930;DHT22;10127;47.780;9.606;2022-09-09T04:07:12;15.30;99.90
19930;DHT22;10127;47.780;9.606;2022-09-09T04:09:38;15.40;99.90
19930;DHT22;10127;47.780;9.606;2022-09-09T04:12:04;15.60;99.90
19930;DHT22;10127;47.780;9.606;2022-09-09T04:14:29;15.60;99.90
19930;DHT22;10127;47.780;9.606;2022-09-09T04:16:55;15.40;99.90
19930;DHT22;10127;47.780;9.606;2022-09-09T04:19:22;15.40;99.90
19930;DHT22;10127;47.780;9.606;2022-09-09T04:21:48;15.40;99.90
19930;DHT22;10127;47.780;9.606;2022-09-09T04:24:15;15.50;99.90
19930;DHT22;10127;47.780;9.606;2022-09-09T04:26:41;15.50;99.90
19930;DHT22;10127;47.780;9.606;2022-09-09T04:29:07;15.60;99.90
19930;DHT22;10127;47.780;9.606;2022-09-09T04:31:32;15.50;99.90
19930;DHT22;10127;47.780;9.606;2022-09-09T04:33:58;15.50;99.90
19930;DHT22;10127;47.780;9.606;2022-09-09T04:36:27;15.40;99.90
19930;DHT22;10127;47.780;9.606;2022-09-09T04:38:53;15.40;99.90
19930;DHT22;10127;47.780;9.606;2022-09-09T04:41:18;15.40;99.90
19930;DHT22;10127;47.780;9.606;2022-09-09T04:43:44;15.40;99.90
19930;DHT22;10127;47.780;9.606;2022-09-09T04:46:10;15.50;99.90
19930;DHT22;10127;47.780;9.606;2022-09-09T04:48:36;15.50;99.90
19930;DHT22;10127;47.780;9.606;2022-09-09T04:51:13;15.40;99.90
19930;DHT22;10127;47.780;9.606;2022-09-09T04:53:38;15.40;99.90
19930;DHT22;10127;47.780;9.606;2022-09-09T04:56:08;15.50;99.90
19930;DHT22;10127;47.780;9.606;2022-09-09T04:58:35;15.70;99.90
19930;DHT22;10127;47.780;9.606;2022-09-09T05:01:09;15.50;99.90
19930;DHT22;10127;47.780;9.606;2022-09-09T05:03:35;15.30;99.90
19930;DHT22;10127;47.780;9.606;2022-09-09T05:06:15;15.30;99.90
19930;DHT22;10127;47.780;9.606;2022-09-09T05:08:43;15.30;99.90
19930;DHT22;10127;47.780;9.606;2022-09-09T05:13:46;15.30;99.90
19930;DHT22;10127;47.780;9.606;2022-09-09T05:16:13;15.40;99.90
19930;DHT22;10127;47.780;9.606;2022-09-09T05:18:40;15.60;99.90
19930;DHT22;10127;47.780;9.606;2022-09-09T05:21:06;15.60;99.90
19930;DHT22;10127;47.780;9.606;2022-09-09T05:23:33;15.70;99.90
19930;DHT22;10127;47.780;9.606;2022-09-09T05:25:59;15.70;99.90
19930;DHT22;10127;47.780;9.606;2022-09-09T05:28:26;15.90;99.90
19930;DHT22;10127;47.780;9.606;2022-09-09T05:30:59;15.90;99.90
19930;DHT22;10127;47.780;9.606;2022-09-09T05:33:26;15.80;99.90
19930;DHT22;10127;47.780;9.606;2022-09-09T05:35:59;15.80;99.90
19930;DHT22;10127;47.780;9.606;2022-09-09T05:38:25;15.90;99.90
19930;DHT22;10127;47.780;9.606;2022-09-09T05:40:52;16.00;99.90
19930;DHT22;10127;47.780;9.606;2022-09-09T05:43:18;16.00;99.90
19930;DHT22;10127;47.780;9.606;2022-09-09T05:45:46;16.00;99.90
19930;DHT22;10127;47.780;9.606;2022-09-09T05:48:13;16.00;99.90
19930;DHT22;10127;47.780;9.606;2022-09-09T05:50:40;16.00;99.90
19930;DHT22;10127;47.780;9.606;2022-09-09T05:53:06;16.10;99.90
19930;DHT22;10127;47.780;9.606;2022-09-09T05:55:31;16.10;99.90
19930;DHT22;10127;47.780;9.606;2022-09-09T05:57:57;16.30;99.90
19930;DHT22;10127;47.780;9.606;2022-09-09T06:00:22;16.20;99.90
19930;DHT22;10127;47.780;9.606;2022-09-09T06:02:52;16.20;99.90
19930;DHT22;10127;47.780;9.606;2022-09-09T06:05:18;16.20;99.90
19930;DHT22;10127;47.780;9.606;2022-09-09T06:07:44;16.10;99.90
19930;DHT22;10127;47.780;9.606;2022-09-09T06:10:10;16.10;99.90
19930;DHT22;10127;47.780;9.606;2022-09-09T06:12:39;16.20;99.90
19930;DHT22;10127;47.780;9.606;2022-09-09T06:15:05;16.20;99.90
19930;DHT22;10127;47.780;9.606;2022-09-09T06:17:31;16.30;99.90
19930;DHT22;10127;47.780;9.606;2022-09-09T06:19:56;16.40;99.90
19930;DHT22;10127;47.780;9.606;2022-09-09T06:22:22;16.50;99.90
19930;DHT22;10127;47.780;9.606;2022-09-09T06:24:48;16.40;99.90
19930;DHT22;10127;47.780;9.606;2022-09-09T06:27:13;16.50;99.90
19930;DHT22;10127;47.780;9.606;2022-09-09T06:29:39;16.50;99.90
19930;DHT22;10127;47.780;9.606;2022-09-09T06:32:06;16.60;99.90
19930;DHT22;10127;47.780;9.606;2022-09-09T06:34:33;16.60;99.90
19930;DHT22;10127;47.780;9.606;2022-09-09T06:36:59;16.60;99.90
19930;DHT22;10127;47.780;9.606;2022-09-09T06:39:25;16.70;99.90
19930;DHT22;10127;47.780;9.606;2022-09-09T06:41:51;16.70;99.90
19930;DHT22;10127;47.780;9.606;2022-09-09T06:44:18;16.70;99.90
19930;DHT22;10127;47.780;9.606;2022-09-09T06:46:44;16.70;99.90
19930;DHT22;10127;47.780;9.606;2022-09-09T06:49:13;16.70;99.90
19930;DHT22;10127;47.780;9.606;2022-09-09T06:51:39;16.80;99.90
19930;DHT22;10127;47.780;9.606;2022-09-09T06:54:12;16.80;99.90
19930;DHT22;10127;47.780;9.606;2022-09-09T06:56:39;16.90;99.90
19930;DHT22;10127;47.780;9.606;2022-09-09T06:59:08;16.90;99.90
19930;DHT22;10127;47.780;9.606;2022-09-09T07:01:39;16.80;99.90
19930;DHT22;10127;47.780;9.606;2022-09-09T07:04:16;16.70;99.90
19930;DHT22;10127;47.780;9.606;2022-09-09T07:06:44;16.80;99.90
19930;DHT22;10127;47.780;9.606;2022-09-09T07:09:13;16.80;99.90
19930;DHT22;10127;47.780;9.606;2022-09-09T07:11:44;16.80;99.90
19930;DHT22;10127;47.780;9.606;2022-09-09T07:14:11;16.80;99.90
19930;DHT22;10127;47.780;9.606;2022-09-09T07:16:40;16.80;99.90
19930;DHT22;10127;47.780;9.606;2022-09-09T07:19:07;16.80;99.90
19930;DHT22;10127;47.780;9.606;2022-09-09T07:21:33;16.90;99.90
19930;DHT22;10127;47.780;9.606;2022-09-09T07:23:59;16.90;99.90
19930;DHT22;10127;47.780;9.606;2022-09-09T07:26:27;17.00;99.90
19930;DHT22;10127;47.780;9.606;2022-09-09T07:28:54;17.00;99.90
19930;DHT22;10127;47.780;9.606;2022-09-09T07:31:24;17.10;99.90
19930;DHT22;10127;47.780;9.606;2022-09-09T07:33:50;17.20;99.90
19930;DHT22;10127;47.780;9.606;2022-09-09T07:36:19;17.30;99.90
19930;DHT22;10127;47.780;9.606;2022-09-09T07:38:51;17.40;99.90
19930;DHT22;10127;47.780;9.606;2022-09-09T07:41:28;17.50;99.90
19930;DHT22;10127;47.780;9.606;2022-09-09T07:43:54;17.40;99.90
19930;DHT22;10127;47.780;9.606;2022-09-09T07:46:21;17.40;99.90
19930;DHT22;10127;47.780;9.606;2022-09-09T07:48:49;17.40;99.90
19930;DHT22;10127;47.780;9.606;2022-09-09T07:51:21;17.40;99.90
19930;DHT22;10127;47.780;9.606;2022-09-09T07:53:51;17.40;99.90
19930;DHT22;10127;47.780;9.606;2022-09-09T07:56:18;17.40;99.90
19930;DHT22;10127;47.780;9.606;2022-09-09T07:58:47;17.30;99.90
19930;DHT22;10127;47.780;9.606;2022-09-09T08:01:24;17.30;99.90
19930;DHT22;10127;47.780;9.606;2022-09-09T08:03:58;17.40;99.90
19930;DHT22;10127;47.780;9.606;2022-09-09T08:06:25;17.50;99.90
19930;DHT22;10127;47.780;9.606;2022-09-09T08:08:52;17.70;99.90
19930;DHT22;10127;47.780;9.606;2022-09-09T08:11:18;17.80;99.90
19930;DHT22;10127;47.780;9.606;2022-09-09T08:13:44;18.10;99.90
19930;DHT22;10127;47.780;9.606;2022-09-09T08:16:22;18.20;99.90
19930;DHT22;10127;47.780;9.606;2022-09-09T08:18:49;18.40;99.90
19930;DHT22;10127;47.780;9.606;2022-09-09T08:21:19;18.40;99.90
19930;DHT22;10127;47.780;9.606;2022-09-09T08:23:45;18.50;99.90
19930;DHT22;10127;47.780;9.606;2022-09-09T08:26:15;18.50;99.90
19930;DHT22;10127;47.780;9.606;2022-09-09T08:28:42;18.60;99.90
19930;DHT22;10127;47.780;9.606;2022-09-09T08:31:15;18.70;99.90
19930;DHT22;10127;47.780;9.606;2022-09-09T08:33:42;18.70;99.90
19930;DHT22;10127;47.780;9.606;2022-09-09T08:36:12;18.70;99.90
19930;DHT22;10127;47.780;9.606;2022-09-09T08:38:41;18.70;99.90
19930;DHT22;10127;47.780;9.606;2022-09-09T08:46:53;18.80;99.90
19930;DHT22;10127;47.780;9.606;2022-09-09T08:52:44;18.90;99.90
19930;DHT22;10127;47.780;9.606;2022-09-09T08:58:04;19.00;99.90
19930;DHT22;10127;47.780;9.606;2022-09-09T09:06:00;19.00;99.90
19930;DHT22;10127;47.780;9.606;2022-09-09T09:11:03;19.10;99.90
19930;DHT22;10127;47.780;9.606;2022-09-09T09:13:52;19.30;99.90
19930;DHT22;10127;47.780;9.606;2022-09-09T09:16:45;19.50;99.90
19930;DHT22;10127;47.780;9.606;2022-09-09T09:19:15;19.50;99.90
19930;DHT22;10127;47.780;9.606;2022-09-09T09:21:44;19.60;99.90
19930;DHT22;10127;47.780;9.606;2022-09-09T09:24:20;19.70;99.90
19930;DHT22;10127;47.780;9.606;2022-09-09T09:26:47;19.70;99.90
19930;DHT22;10127;47.780;9.606;2022-09-09T09:29:18;19.60;99.90
19930;DHT22;10127;47.780;9.606;2022-09-09T09:31:56;19.70;99.90
19930;DHT22;10127;47.780;9.606;2022-09-09T09:34:26;19.70;99.90
19930;DHT22;10127;47.780;9.606;2022-09-09T09:36:58;19.80;99.90
19930;DHT22;10127;47.780;9.606;2022-09-09T09:39:32;19.80;99.90
19930;DHT22;10127;47.780;9.606;2022-09-09T09:42:13;19.70;99.90
19930;DHT22;10127;47.780;9.606;2022-09-09T09:44:40;19.60;99.90
19930;DHT22;10127;47.780;9.606;2022-09-09T09:47:13;19.60;99.90
19930;DHT22;10127;47.780;9.606;2022-09-09T09:49:50;19.70;99.90
19930;DHT22;10127;47.780;9.606;2022-09-09T09:52:21;20.00;99.90
19930;DHT22;10127;47.780;9.606;2022-09-09T09:54:48;20.20;99.90
19930;DHT22;10127;47.780;9.606;2022-09-09T09:57:15;20.30;99.90
19930;DHT22;10127;47.780;9.606;2022-09-09T09:59:42;20.50;99.90
19930;DHT22;10127;47.780;9.606;2022-09-09T10:04:39;20.40;99.90
19930;DHT22;10127;47.780;9.606;2022-09-09T10:07:13;20.20;99.90
19930;DHT22;10127;47.780;9.606;2022-09-09T10:09:42;20.10;99.90
19930;DHT22;10127;47.780;9.606;2022-09-09T10:12:30;20.10;99.90
19930;DHT22;10127;47.780;9.606;2022-09-09T10:17:59;19.90;99.90
19930;DHT22;10127;47.780;9.606;2022-09-09T10:26:35;20.00;99.90
19930;DHT22;10127;47.780;9.606;2022-09-09T10:35:19;19.90;99.90
19930;DHT22;10127;47.780;9.606;2022-09-09T10:37:35;19.80;99.90
19930;DHT22;10127;47.780;9.606;2022-09-09T10:42:41;19.70;99.90
19930;DHT22;10127;47.780;9.606;2022-09-09T10:47:49;19.80;99.90
19930;DHT22;10127;47.780;9.606;2022-09-09T10:55:58;20.20;99.90
19930;DHT22;10127;47.780;9.606;2022-09-09T10:58:46;20.10;99.90
19930;DHT22;10127;47.780;9.606;2022-09-09T11:04:23;20.30;99.90
19930;DHT22;10127;47.780;9.606;2022-09-09T11:06:54;20.60;99.90
19930;DHT22;10127;47.780;9.606;2022-09-09T11:09:33;20.80;99.90
19930;DHT22;10127;47.780;9.606;2022-09-09T11:12:02;20.90;99.90
19930;DHT22;10127;47.780;9.606;2022-09-09T11:14:41;21.00;99.90
19930;DHT22;10127;47.780;9.606;2022-09-09T11:17:24;21.30;99.50
19930;DHT22;10127;47.780;9.606;2022-09-09T11:19:52;21.30;99.30
19930;DHT22;10127;47.780;9.606;2022-09-09T11:22:29;21.20;99.70
19930;DHT22;10127;47.780;9.606;2022-09-09T11:25:08;21.20;99.60
19930;DHT22;10127;47.780;9.606;2022-09-09T11:28:40;21.00;99.60
19930;DHT22;10127;47.780;9.606;2022-09-09T11:33:49;20.60;99.90
19930;DHT22;10127;47.780;9.606;2022-09-09T11:41:45;20.70;99.30
19930;DHT22;10127;47.780;9.606;2022-09-09T11:44:13;20.90;99.60
19930;DHT22;10127;47.780;9.606;2022-09-09T11:46:43;21.20;99.70
19930;DHT22;10127;47.780;9.606;2022-09-09T11:49:41;21.20;99.50
19930;DHT22;10127;47.780;9.606;2022-09-09T11:52:41;21.30;99.10
19930;DHT22;10127;47.780;9.606;2022-09-09T11:55:27;21.10;99.60
19930;DHT22;10127;47.780;9.606;2022-09-09T12:06:30;21.20;99.90
19930;DHT22;10127;47.780;9.606;2022-09-09T12:09:17;21.00;99.90
19930;DHT22;10127;47.780;9.606;2022-09-09T12:11:45;21.00;99.90
19930;DHT22;10127;47.780;9.606;2022-09-09T12:14:37;21.20;99.90
19930;DHT22;10127;47.780;9.606;2022-09-09T12:19:42;21.50;99.90
19930;DHT22;10127;47.780;9.606;2022-09-09T12:34:06;20.90;99.90
19930;DHT22;10127;47.780;9.606;2022-09-09T12:36:35;20.70;99.90
19930;DHT22;10127;47.780;9.606;2022-09-09T12:39:56;20.70;99.90
19930;DHT22;10127;47.780;9.606;2022-09-09T12:41:56;20.90;99.90
19930;DHT22;10127;47.780;9.606;2022-09-09T12:44:25;21.20;99.90
19930;DHT22;10127;47.780;9.606;2022-09-09T12:46:53;21.20;99.90
19930;DHT22;10127;47.780;9.606;2022-09-09T12:51:49;21.10;99.90
19930;DHT22;10127;47.780;9.606;2022-09-09T12:54:15;21.10;99.90
19930;DHT22;10127;47.780;9.606;2022-09-09T12:56:45;21.10;99.90
19930;DHT22;10127;47.780;9.606;2022-09-09T12:59:50;21.20;99.90
19930;DHT22;10127;47.780;9.606;2022-09-09T13:02:25;21.10;98.40
19930;DHT22;10127;47.780;9.606;2022-09-09T13:04:52;20.80;99.20
19930;DHT22;10127;47.780;9.606;2022-09-09T13:07:20;20.70;99.80
19930;DHT22;10127;47.780;9.606;2022-09-09T13:09:48;20.90;99.50
19930;DHT22;10127;47.780;9.606;2022-09-09T13:12:19;21.00;98.90
19930;DHT22;10127;47.780;9.606;2022-09-09T13:14:49;21.10;98.70
19930;DHT22;10127;47.780;9.606;2022-09-09T13:17:26;21.20;98.40
19930;DHT22;10127;47.780;9.606;2022-09-09T13:19:56;21.10;98.80
19930;DHT22;10127;47.780;9.606;2022-09-09T13:22:34;21.20;99.10
19930;DHT22;10127;47.780;9.606;2022-09-09T13:27:41;21.30;99.00
19930;DHT22;10127;47.780;9.606;2022-09-09T13:30:27;21.40;98.90
19930;DHT22;10127;47.780;9.606;2022-09-09T13:35:52;21.60;98.30
19930;DHT22;10127;47.780;9.606;2022-09-09T13:38:19;21.80;97.80
19930;DHT22;10127;47.780;9.606;2022-09-09T13:40:58;22.00;98.10
19930;DHT22;10127;47.780;9.606;2022-09-09T13:43:25;21.80;97.90
19930;DHT22;10127;47.780;9.606;2022-09-09T13:45:56;21.80;97.60
19930;DHT22;10127;47.780;9.606;2022-09-09T13:48:23;21.80;97.60
19930;DHT22;10127;47.780;9.606;2022-09-09T13:51:03;22.00;97.60
19930;DHT22;10127;47.780;9.606;2022-09-09T13:53:32;22.00;97.30
19930;DHT22;10127;47.780;9.606;2022-09-09T13:55:58;22.20;96.50
19930;DHT22;10127;47.780;9.606;2022-09-09T13:58:25;22.20;95.40
19930;DHT22;10127;47.780;9.606;2022-09-09T14:00:52;22.30;95.50
19930;DHT22;10127;47.780;9.606;2022-09-09T14:03:19;22.30;95.20
19930;DHT22;10127;47.780;9.606;2022-09-09T14:05:45;22.30;94.50
19930;DHT22;10127;47.780;9.606;2022-09-09T14:08:20;22.40;93.40
19930;DHT22;10127;47.780;9.606;2022-09-09T14:10:46;22.50;92.50
19930;DHT22;10127;47.780;9.606;2022-09-09T14:13:12;22.70;92.80
19930;DHT22;10127;47.780;9.606;2022-09-09T14:15:38;22.70;91.80
19930;DHT22;10127;47.780;9.606;2022-09-09T14:18:04;22.60;92.00
19930;DHT22;10127;47.780;9.606;2022-09-09T14:20:29;22.60;91.40
19930;DHT22;10127;47.780;9.606;2022-09-09T14:22:55;22.70;91.70
19930;DHT22;10127;47.780;9.606;2022-09-09T14:25:23;22.70;91.40
19930;DHT22;10127;47.780;9.606;2022-09-09T14:27:48;22.80;91.50
19930;DHT22;10127;47.780;9.606;2022-09-09T14:30:16;22.80;92.00
19930;DHT22;10127;47.780;9.606;2022-09-09T14:32:42;23.00;91.60
19930;DHT22;10127;47.780;9.606;2022-09-09T14:35:08;23.10;91.20
19930;DHT22;10127;47.780;9.606;2022-09-09T14:37:33;23.10;91.70
19930;DHT22;10127;47.780;9.606;2022-09-09T14:39:59;23.00;92.10
19930;DHT22;10127;47.780;9.606;2022-09-09T14:42:25;23.00;91.70
19930;DHT22;10127;47.780;9.606;2022-09-09T14:44:52;22.90;92.40
19930;DHT22;10127;47.780;9.606;2022-09-09T14:47:17;22.90;92.90
19930;DHT22;10127;47.780;9.606;2022-09-09T14:49:43;23.00;92.20
19930;DHT22;10127;47.780;9.606;2022-09-09T14:52:08;22.90;92.60
19930;DHT22;10127;47.780;9.606;2022-09-09T14:54:34;22.80;92.80
19930;DHT22;10127;47.780;9.606;2022-09-09T14:57:00;22.80;92.50
19930;DHT22;10127;47.780;9.606;2022-09-09T14:59:25;22.90;92.80
19930;DHT22;10127;47.780;9.606;2022-09-09T15:01:53;22.90;93.20
19930;DHT22;10127;47.780;9.606;2022-09-09T15:04:19;23.00;92.90
19930;DHT22;10127;47.780;9.606;2022-09-09T15:06:45;23.00;92.10
19930;DHT22;10127;47.780;9.606;2022-09-09T15:09:14;23.00;92.40
19930;DHT22;10127;47.780;9.606;2022-09-09T15:11:39;23.10;92.50
19930;DHT22;10127;47.780;9.606;2022-09-09T15:14:06;23.00;91.90
19930;DHT22;10127;47.780;9.606;2022-09-09T15:16:32;22.90;91.90
19930;DHT22;10127;47.780;9.606;2022-09-09T15:18:59;22.80;92.40
19930;DHT22;10127;47.780;9.606;2022-09-09T15:21:31;22.60;92.50
19930;DHT22;10127;47.780;9.606;2022-09-09T15:23:57;22.50;92.60
19930;DHT22;10127;47.780;9.606;2022-09-09T15:26:23;22.40;92.60
19930;DHT22;10127;47.780;9.606;2022-09-09T15:28:49;22.40;92.90
19930;DHT22;10127;47.780;9.606;2022-09-09T15:31:22;22.70;92.60
19930;DHT22;10127;47.780;9.606;2022-09-09T15:36:17;22.90;92.90
19930;DHT22;10127;47.780;9.606;2022-09-09T15:38:44;23.00;93.00
19930;DHT22;10127;47.780;9.606;2022-09-09T15:41:11;23.10;92.90
19930;DHT22;10127;47.780;9.606;2022-09-09T15:43:38;23.00;92.30
19930;DHT22;10127;47.780;9.606;2022-09-09T15:46:27;22.80;92.40
19930;DHT22;10127;47.780;9.606;2022-09-09T15:51:57;22.60;93.00
19930;DHT22;10127;47.780;9.606;2022-09-09T15:54:24;22.90;92.60
19930;DHT22;10127;47.780;9.606;2022-09-09T15:56:55;23.20;91.80
19930;DHT22;10127;47.780;9.606;2022-09-09T15:59:25;23.20;91.80
19930;DHT22;10127;47.780;9.606;2022-09-09T16:01:51;22.90;91.80
19930;DHT22;10127;47.780;9.606;2022-09-09T16:04:18;22.80;92.50
19930;DHT22;10127;47.780;9.606;2022-09-09T16:06:49;22.70;92.60
19930;DHT22;10127;47.780;9.606;2022-09-09T16:09:15;22.70;92.60
19930;DHT22;10127;47.780;9.606;2022-09-09T16:11:41;22.80;92.50
19930;DHT22;10127;47.780;9.606;2022-09-09T16:14:06;22.80;92.00
19930;DHT22;10127;47.780;9.606;2022-09-09T16:16:32;22.70;91.70
19930;DHT22;10127;47.780;9.606;2022-09-09T16:19:01;22.70;92.00
19930;DHT22;10127;47.780;9.606;2022-09-09T16:21:30;22.60;92.10
19930;DHT22;10127;47.780;9.606;2022-09-09T16:23:58;22.60;92.20
19930;DHT22;10127;47.780;9.606;2022-09-09T16:26:29;23.20;91.20
19930;DHT22;10127;47.780;9.606;2022-09-09T16:28:56;24.90;88.50
19930;DHT22;10127;47.780;9.606;2022-09-09T16:31:23;27.80;81.50
19930;DHT22;10127;47.780;9.606;2022-09-09T16:33:49;29.50;75.60
19930;DHT22;10127;47.780;9.606;2022-09-09T16:36:35;30.30;73.30
19930;DHT22;10127;47.780;9.606;2022-09-09T16:39:03;31.60;69.90
19930;DHT22;10127;47.780;9.606;2022-09-09T16:41:30;31.80;66.90
19930;DHT22;10127;47.780;9.606;2022-09-09T16:44:03;29.30;70.10
19930;DHT22;10127;47.780;9.606;2022-09-09T16:46:33;26.40;78.10
19930;DHT22;10127;47.780;9.606;2022-09-09T16:49:00;24.80;83.20
19930;DHT22;10127;47.780;9.606;2022-09-09T16:51:31;23.70;86.90
19930;DHT22;10127;47.780;9.606;2022-09-09T16:53:59;23.00;90.30
19930;DHT22;10127;47.780;9.606;2022-09-09T16:56:27;22.50;91.50
19930;DHT22;10127;47.780;9.606;2022-09-09T16:58:56;22.10;92.30
19930;DHT22;10127;47.780;9.606;2022-09-09T17:01:27;21.90;93.00
19930;DHT22;10127;47.780;9.606;2022-09-09T17:03:57;21.60;93.70
19930;DHT22;10127;47.780;9.606;2022-09-09T17:06:23;21.50;94.20
19930;DHT22;10127;47.780;9.606;2022-09-09T17:08:57;21.30;94.40
19930;DHT22;10127;47.780;9.606;2022-09-09T17:11:24;21.20;94.40
19930;DHT22;10127;47.780;9.606;2022-09-09T17:13:51;21.00;95.00
19930;DHT22;10127;47.780;9.606;2022-09-09T17:16:18;20.90;95.00
19930;DHT22;10127;47.780;9.606;2022-09-09T17:18:46;20.80;95.70
19930;DHT22;10127;47.780;9.606;2022-09-09T17:21:14;20.70;95.40
19930;DHT22;10127;47.780;9.606;2022-09-09T17:23:41;20.60;95.90
19930;DHT22;10127;47.780;9.606;2022-09-09T17:26:10;20.50;95.90
19930;DHT22;10127;47.780;9.606;2022-09-09T17:28:38;20.30;97.50
19930;DHT22;10127;47.780;9.606;2022-09-09T17:31:06;20.20;97.70
19930;DHT22;10127;47.780;9.606;2022-09-09T17:33:38;20.10;98.30
19930;DHT22;10127;47.780;9.606;2022-09-09T17:36:13;20.00;98.90
19930;DHT22;10127;47.780;9.606;2022-09-09T17:38:40;19.90;98.60
19930;DHT22;10127;47.780;9.606;2022-09-09T17:41:09;19.90;98.70
19930;DHT22;10127;47.780;9.606;2022-09-09T17:43:35;19.80;98.80
19930;DHT22;10127;47.780;9.606;2022-09-09T17:48:36;19.80;99.10
19930;DHT22;10127;47.780;9.606;2022-09-09T17:51:04;19.70;99.50
19930;DHT22;10127;47.780;9.606;2022-09-09T17:53:30;19.70;99.50
19930;DHT22;10127;47.780;9.606;2022-09-09T17:56:05;19.60;99.70
19930;DHT22;10127;47.780;9.606;2022-09-09T17:58:31;19.60;99.70
19930;DHT22;10127;47.780;9.606;2022-09-09T18:01:12;19.60;99.90
19930;DHT22;10127;47.780;9.606;2022-09-09T18:03:39;19.50;99.90
19930;DHT22;10127;47.780;9.606;2022-09-09T18:06:10;19.50;99.90
19930;DHT22;10127;47.780;9.606;2022-09-09T18:08:39;19.40;99.90
19930;DHT22;10127;47.780;9.606;2022-09-09T18:11:05;19.30;99.90
19930;DHT22;10127;47.780;9.606;2022-09-09T18:13:32;19.30;99.90
19930;DHT22;10127;47.780;9.606;2022-09-09T18:15:57;19.30;99.90
19930;DHT22;10127;47.780;9.606;2022-09-09T18:18:23;19.30;99.90
19930;DHT22;10127;47.780;9.606;2022-09-09T18:20:57;19.30;99.90
19930;DHT22;10127;47.780;9.606;2022-09-09T18:23:23;19.30;99.90